Lama, New Mexico
Current Conditions -  °F | °C
As of 1:15 AM on Friday 24 Oct 2014 (Local Time) from KSKX Reporting Station
Clear Clear  
Wind Chill: 39°   Ceiling: Unl
Heat Index: 39°   Visibility: 10mi
Dew Point: 27°   Wind: 3mph
Humidity: 61%   Direction: 360°N
Pressure: 30.38"   Gusts: NA
Location:  36.7571°N, 105.477°W
Report Text: KSKX 240715Z AUTO 36003KT 10SM CLR 04/M03 A3038 RMK AO1
Loading
Personal Weather Stations






























Interactive Weather Map
Tropical Storm Tracking
New forecast layout! Learn more

10-Day Weather Forecast

Advertisements
Track Severe Weather on mobile